sensor_id;sensor_type;location;lat;lon;timestamp;pressure;altitude;pressure_sealevel;temperature;humidity
71126;BME280;58785;55.566;38.058;2023-04-05T00:01:37;100511.34;;;7.07;78.44
71126;BME280;58785;55.566;38.058;2023-04-05T00:04:03;100521.97;;;7.07;78.44
71126;BME280;58785;55.566;38.058;2023-04-05T00:06:30;100506.84;;;6.96;78.12
71126;BME280;58785;55.566;38.058;2023-04-05T00:11:23;100516.50;;;6.97;78.08
71126;BME280;58785;55.566;38.058;2023-04-05T00:13:49;100517.81;;;6.91;78.55
71126;BME280;58785;55.566;38.058;2023-04-05T00:16:16;100511.28;;;6.84;78.19
71126;BME280;58785;55.566;38.058;2023-04-05T00:18:42;100521.03;;;6.84;78.90
71126;BME280;58785;55.566;38.058;2023-04-05T00:21:15;100515.94;;;6.81;78.90
71126;BME280;58785;55.566;38.058;2023-04-05T00:23:41;100510.53;;;6.82;78.19
71126;BME280;58785;55.566;38.058;2023-04-05T00:26:10;100508.22;;;6.78;79.21
71126;BME280;58785;55.566;38.058;2023-04-05T00:28:36;100514.25;;;6.80;78.73
71126;BME280;58785;55.566;38.058;2023-04-05T00:31:03;100507.63;;;6.74;78.74
71126;BME280;58785;55.566;38.058;2023-04-05T00:33:29;100510.88;;;6.78;78.86
71126;BME280;58785;55.566;38.058;2023-04-05T00:35:55;100513.53;;;6.78;78.97
71126;BME280;58785;55.566;38.058;2023-04-05T00:38:20;100503.16;;;6.75;78.78
71126;BME280;58785;55.566;38.058;2023-04-05T00:40:46;100497.34;;;6.70;79.14
71126;BME280;58785;55.566;38.058;2023-04-05T00:43:11;100511.72;;;6.78;79.04
71126;BME280;58785;55.566;38.058;2023-04-05T00:45:37;100512.56;;;6.79;78.22
71126;BME280;58785;55.566;38.058;2023-04-05T00:48:02;100514.38;;;6.78;78.75
71126;BME280;58785;55.566;38.058;2023-04-05T00:50:29;100514.13;;;6.81;78.62
71126;BME280;58785;55.566;38.058;2023-04-05T00:52:56;100514.25;;;6.80;78.60
71126;BME280;58785;55.566;38.058;2023-04-05T00:55:23;100514.47;;;6.77;79.08
71126;BME280;58785;55.566;38.058;2023-04-05T00:57:49;100515.56;;;6.74;79.12
71126;BME280;58785;55.566;38.058;2023-04-05T01:00:15;100515.88;;;6.70;78.62
71126;BME280;58785;55.566;38.058;2023-04-05T01:02:44;100521.31;;;6.68;78.47
71126;BME280;58785;55.566;38.058;2023-04-05T01:05:28;100516.34;;;6.63;78.78
71126;BME280;58785;55.566;38.058;2023-04-05T01:08:21;100515.22;;;6.55;78.93
71126;BME280;58785;55.566;38.058;2023-04-05T01:10:58;100511.97;;;6.51;79.22
71126;BME280;58785;55.566;38.058;2023-04-05T01:13:24;100528.47;;;6.55;79.68
71126;BME280;58785;55.566;38.058;2023-04-05T01:15:50;100524.56;;;6.48;79.11
71126;BME280;58785;55.566;38.058;2023-04-05T01:18:17;100535.03;;;6.49;79.46
71126;BME280;58785;55.566;38.058;2023-04-05T01:21:14;100523.22;;;6.42;79.56
71126;BME280;58785;55.566;38.058;2023-04-05T01:29:34;100532.63;;;6.46;79.36
71126;BME280;58785;55.566;38.058;2023-04-05T01:35:00;100535.28;;;6.46;79.21
71126;BME280;58785;55.566;38.058;2023-04-05T01:37:31;100529.34;;;6.43;79.84
71126;BME280;58785;55.566;38.058;2023-04-05T01:39:59;100529.34;;;6.43;79.06
71126;BME280;58785;55.566;38.058;2023-04-05T01:42:26;100534.66;;;6.43;79.40
71126;BME280;58785;55.566;38.058;2023-04-05T01:44:53;100524.16;;;6.41;79.28
71126;BME280;58785;55.566;38.058;2023-04-05T01:47:18;100529.66;;;6.38;79.18
71126;BME280;58785;55.566;38.058;2023-04-05T01:49:45;100540.03;;;6.41;80.02
71126;BME280;58785;55.566;38.058;2023-04-05T01:52:10;100534.84;;;6.40;79.64
71126;BME280;58785;55.566;38.058;2023-04-05T01:54:36;100525.75;;;6.31;80.04
71126;BME280;58785;55.566;38.058;2023-04-05T01:57:02;100529.91;;;6.35;79.54
71126;BME280;58785;55.566;38.058;2023-04-05T01:59:28;100534.25;;;6.36;79.50
71126;BME280;58785;55.566;38.058;2023-04-05T02:01:53;100531.81;;;6.33;79.98
71126;BME280;58785;55.566;38.058;2023-04-05T02:04:19;100532.88;;;6.30;80.24
71126;BME280;58785;55.566;38.058;2023-04-05T02:06:44;100540.72;;;6.32;80.13
71126;BME280;58785;55.566;38.058;2023-04-05T02:09:10;100544.22;;;6.32;79.34
71126;BME280;58785;55.566;38.058;2023-04-05T02:11:35;100541.88;;;6.28;79.91
71126;BME280;58785;55.566;38.058;2023-04-05T02:14:01;100538.84;;;6.21;79.98
71126;BME280;58785;55.566;38.058;2023-04-05T02:16:47;100541.81;;;6.17;80.19
71126;BME280;58785;55.566;38.058;2023-04-05T02:19:13;100543.59;;;6.16;80.27
71126;BME280;58785;55.566;38.058;2023-04-05T02:21:40;100547.31;;;6.14;79.99
71126;BME280;58785;55.566;38.058;2023-04-05T02:24:06;100551.25;;;6.08;79.84
71126;BME280;58785;55.566;38.058;2023-04-05T02:26:32;100561.59;;;6.11;79.78
71126;BME280;58785;55.566;38.058;2023-04-05T02:28:57;100547.84;;;6.06;79.96
71126;BME280;58785;55.566;38.058;2023-04-05T02:31:23;100551.25;;;6.08;80.46
71126;BME280;58785;55.566;38.058;2023-04-05T02:33:49;100557.50;;;6.07;80.54
71126;BME280;58785;55.566;38.058;2023-04-05T02:36:15;100549.03;;;6.02;80.37
71126;BME280;58785;55.566;38.058;2023-04-05T02:38:40;100558.56;;;6.04;80.42
71126;BME280;58785;55.566;38.058;2023-04-05T02:41:09;100560.34;;;6.04;79.99
71126;BME280;58785;55.566;38.058;2023-04-05T02:43:38;100563.00;;;6.04;80.50
71126;BME280;58785;55.566;38.058;2023-04-05T02:46:04;100563.53;;;5.96;80.27
71126;BME280;58785;55.566;38.058;2023-04-05T02:48:29;100565.97;;;5.99;80.35
71126;BME280;58785;55.566;38.058;2023-04-05T02:50:55;100567.66;;;6.00;80.03
71126;BME280;58785;55.566;38.058;2023-04-05T02:53:20;100571.13;;;6.01;80.78
71126;BME280;58785;55.566;38.058;2023-04-05T02:55:53;100565.00;;;6.00;80.73
71126;BME280;58785;55.566;38.058;2023-04-05T02:58:19;100577.09;;;6.04;80.17
71126;BME280;58785;55.566;38.058;2023-04-05T03:00:49;100577.94;;;6.05;80.03
71126;BME280;58785;55.566;38.058;2023-04-05T03:03:19;100556.31;;;5.98;79.91
71126;BME280;58785;55.566;38.058;2023-04-05T03:05:46;100570.00;;;6.05;80.36
71126;BME280;58785;55.566;38.058;2023-04-05T03:08:15;100579.50;;;6.08;80.22
71126;BME280;58785;55.566;38.058;2023-04-05T03:10:47;100577.41;;;6.13;79.89
71126;BME280;58785;55.566;38.058;2023-04-05T03:13:13;100578.38;;;6.12;79.37
71126;BME280;58785;55.566;38.058;2023-04-05T03:15:40;100577.91;;;6.18;79.55
71126;BME280;58785;55.566;38.058;2023-04-05T03:18:06;100573.28;;;6.21;79.17
71126;BME280;58785;55.566;38.058;2023-04-05T03:20:36;100578.66;;;6.32;79.36
71126;BME280;58785;55.566;38.058;2023-04-05T03:23:06;100589.44;;;6.42;79.27
71126;BME280;58785;55.566;38.058;2023-04-05T03:25:35;100591.09;;;6.56;78.64
71126;BME280;58785;55.566;38.058;2023-04-05T03:28:05;100583.63;;;6.61;79.23
71126;BME280;58785;55.566;38.058;2023-04-05T03:30:31;100574.41;;;6.67;78.78
71126;BME280;58785;55.566;38.058;2023-04-05T03:32:57;100596.28;;;6.81;78.58
71126;BME280;58785;55.566;38.058;2023-04-05T03:35:26;100598.19;;;6.92;78.71
71126;BME280;58785;55.566;38.058;2023-04-05T03:37:53;100589.88;;;6.97;78.62
71126;BME280;58785;55.566;38.058;2023-04-05T03:40:20;100596.94;;;7.09;78.34
71126;BME280;58785;55.566;38.058;2023-04-05T03:42:45;100605.56;;;7.24;78.36
71126;BME280;58785;55.566;38.058;2023-04-05T03:45:12;100603.41;;;7.29;77.70
71126;BME280;58785;55.566;38.058;2023-04-05T03:47:38;100605.97;;;7.41;78.04
71126;BME280;58785;55.566;38.058;2023-04-05T03:50:04;100588.75;;;7.36;77.87
71126;BME280;58785;55.566;38.058;2023-04-05T03:52:30;100615.56;;;7.55;77.79
71126;BME280;58785;55.566;38.058;2023-04-05T03:54:55;100619.34;;;7.64;77.16
71126;BME280;58785;55.566;38.058;2023-04-05T03:57:21;100609.09;;;7.70;77.38
71126;BME280;58785;55.566;38.058;2023-04-05T03:59:47;100621.22;;;7.86;76.55
71126;BME280;58785;55.566;38.058;2023-04-05T04:02:12;100618.56;;;7.86;77.15
71126;BME280;58785;55.566;38.058;2023-04-05T04:04:38;100617.34;;;7.90;76.44
71126;BME280;58785;55.566;38.058;2023-04-05T04:07:03;100620.25;;;7.98;76.50
71126;BME280;58785;55.566;38.058;2023-04-05T04:09:30;100622.44;;;7.93;77.07
71126;BME280;58785;55.566;38.058;2023-04-05T04:11:55;100615.91;;;7.86;76.74
71126;BME280;58785;55.566;38.058;2023-04-05T04:14:23;100630.63;;;7.90;76.45
71126;BME280;58785;55.566;38.058;2023-04-05T04:16:49;100624.59;;;7.88;76.89
71126;BME280;58785;55.566;38.058;2023-04-05T04:19:17;100632.22;;;7.92;76.42
71126;BME280;58785;55.566;38.058;2023-04-05T04:21:42;100625.81;;;7.95;76.32
71126;BME280;58785;55.566;38.058;2023-04-05T04:24:18;100632.09;;;7.94;76.50
71126;BME280;58785;55.566;38.058;2023-04-05T04:26:45;100631.47;;;7.90;76.15
71126;BME280;58785;55.566;38.058;2023-04-05T04:29:11;100631.59;;;8.00;76.43
71126;BME280;58785;55.566;38.058;2023-04-05T04:31:42;100629.34;;;8.06;76.15
71126;BME280;58785;55.566;38.058;2023-04-05T04:34:13;100624.50;;;8.12;75.36
71126;BME280;58785;55.566;38.058;2023-04-05T04:36:43;100633.09;;;8.26;74.98
71126;BME280;58785;55.566;38.058;2023-04-05T04:39:12;100647.25;;;8.38;74.94
71126;BME280;58785;55.566;38.058;2023-04-05T04:41:38;100629.63;;;8.48;74.70
71126;BME280;58785;55.566;38.058;2023-04-05T04:44:09;100644.25;;;8.54;74.65
71126;BME280;58785;55.566;38.058;2023-04-05T04:46:39;100639.28;;;8.60;74.24
71126;BME280;58785;55.566;38.058;2023-04-05T04:49:08;100642.91;;;8.71;73.87
71126;BME280;58785;55.566;38.058;2023-04-05T04:51:37;100647.03;;;8.75;73.88
71126;BME280;58785;55.566;38.058;2023-04-05T04:54:03;100644.72;;;8.70;73.42
71126;BME280;58785;55.566;38.058;2023-04-05T04:56:29;100639.53;;;8.69;73.86
71126;BME280;58785;55.566;38.058;2023-04-05T04:58:55;100648.09;;;8.83;73.37
71126;BME280;58785;55.566;38.058;2023-04-05T05:01:21;100639.75;;;8.77;73.35
71126;BME280;58785;55.566;38.058;2023-04-05T05:03:50;100650.97;;;8.80;73.28
71126;BME280;58785;55.566;38.058;2023-04-05T05:06:16;100656.66;;;8.87;72.77
71126;BME280;58785;55.566;38.058;2023-04-05T05:08:43;100638.91;;;8.87;72.92
71126;BME280;58785;55.566;38.058;2023-04-05T05:11:09;100661.59;;;8.91;72.84
71126;BME280;58785;55.566;38.058;2023-04-05T05:13:34;100645.91;;;8.88;72.75
71126;BME280;58785;55.566;38.058;2023-04-05T05:16:00;100656.38;;;9.01;72.30
71126;BME280;58785;55.566;38.058;2023-04-05T05:18:28;100656.66;;;8.98;72.22
71126;BME280;58785;55.566;38.058;2023-04-05T05:20:54;100660.38;;;9.07;71.93
71126;BME280;58785;55.566;38.058;2023-04-05T05:23:20;100655.91;;;9.07;71.73
71126;BME280;58785;55.566;38.058;2023-04-05T05:25:46;100671.47;;;9.23;71.66
71126;BME280;58785;55.566;38.058;2023-04-05T05:28:11;100668.06;;;9.32;71.03
71126;BME280;58785;55.566;38.058;2023-04-05T05:30:37;100669.22;;;9.39;71.10
71126;BME280;58785;55.566;38.058;2023-04-05T05:33:03;100667.28;;;9.41;70.71
71126;BME280;58785;55.566;38.058;2023-04-05T05:35:28;100667.84;;;9.56;70.33
71126;BME280;58785;55.566;38.058;2023-04-05T05:37:55;100680.66;;;9.62;69.92
71126;BME280;58785;55.566;38.058;2023-04-05T05:40:21;100664.06;;;9.59;70.29
71126;BME280;58785;55.566;38.058;2023-04-05T05:42:47;100674.19;;;9.76;69.58
71126;BME280;58785;55.566;38.058;2023-04-05T05:45:13;100671.97;;;9.81;69.66
71126;BME280;58785;55.566;38.058;2023-04-05T05:47:38;100687.22;;;9.79;69.12
71126;BME280;58785;55.566;38.058;2023-04-05T05:50:05;100682.63;;;9.81;69.36
71126;BME280;58785;55.566;38.058;2023-04-05T05:52:31;100682.03;;;9.77;69.14
71126;BME280;58785;55.566;38.058;2023-04-05T05:54:56;100690.22;;;9.86;68.92
71126;BME280;58785;55.566;38.058;2023-04-05T05:57:22;100691.41;;;9.93;68.82
71126;BME280;58785;55.566;38.058;2023-04-05T05:59:47;100690.38;;;9.84;69.12
71126;BME280;58785;55.566;38.058;2023-04-05T06:02:13;100692.63;;;9.89;68.60
71126;BME280;58785;55.566;38.058;2023-04-05T06:04:39;100694.38;;;9.99;68.98
71126;BME280;58785;55.566;38.058;2023-04-05T06:07:04;100671.06;;;9.92;68.42
71126;BME280;58785;55.566;38.058;2023-04-05T06:09:30;100690.88;;;9.99;68.29
71126;BME280;58785;55.566;38.058;2023-04-05T06:11:58;100692.56;;;10.00;67.82
71126;BME280;58785;55.566;38.058;2023-04-05T06:14:24;100688.69;;;10.04;68.37
71126;BME280;58785;55.566;38.058;2023-04-05T06:16:49;100672.31;;;10.08;68.43
71126;BME280;58785;55.566;38.058;2023-04-05T06:19:15;100699.28;;;10.36;67.68
71126;BME280;58785;55.566;38.058;2023-04-05T06:21:40;100693.59;;;10.50;67.43
71126;BME280;58785;55.566;38.058;2023-04-05T06:24:06;100705.84;;;10.53;66.59
71126;BME280;58785;55.566;38.058;2023-04-05T06:26:32;100706.09;;;10.50;66.60
71126;BME280;58785;55.566;38.058;2023-04-05T06:28:57;100705.16;;;10.60;66.62
71126;BME280;58785;55.566;38.058;2023-04-05T06:31:30;100705.59;;;10.56;65.86
71126;BME280;58785;55.566;38.058;2023-04-05T06:33:56;100708.91;;;10.48;66.71
71126;BME280;58785;55.566;38.058;2023-04-05T06:36:22;100696.56;;;10.47;67.24
71126;BME280;58785;55.566;38.058;2023-04-05T06:38:47;100706.50;;;10.45;66.13
71126;BME280;58785;55.566;38.058;2023-04-05T06:41:13;100708.13;;;10.57;66.42
71126;BME280;58785;55.566;38.058;2023-04-05T06:43:39;100701.56;;;10.71;65.83
71126;BME280;58785;55.566;38.058;2023-04-05T06:46:04;100702.16;;;10.75;66.30
71126;BME280;58785;55.566;38.058;2023-04-05T06:48:33;100695.72;;;10.77;65.18
71126;BME280;58785;55.566;38.058;2023-04-05T06:51:00;100704.59;;;10.87;64.99
71126;BME280;58785;55.566;38.058;2023-04-05T06:53:27;100705.66;;;11.15;65.28
71126;BME280;58785;55.566;38.058;2023-04-05T06:55:54;100705.28;;;11.39;64.66
71126;BME280;58785;55.566;38.058;2023-04-05T06:58:20;100705.31;;;11.68;64.37
71126;BME280;58785;55.566;38.058;2023-04-05T07:00:46;100704.34;;;11.79;64.21
71126;BME280;58785;55.566;38.058;2023-04-05T07:03:12;100710.38;;;11.71;64.29
71126;BME280;58785;55.566;38.058;2023-04-05T07:05:37;100703.94;;;11.74;63.90
71126;BME280;58785;55.566;38.058;2023-04-05T07:08:03;100709.16;;;11.85;64.12
71126;BME280;58785;55.566;38.058;2023-04-05T07:10:28;100711.69;;;11.87;63.78
71126;BME280;58785;55.566;38.058;2023-04-05T07:12:54;100715.03;;;11.79;63.51
71126;BME280;58785;55.566;38.058;2023-04-05T07:15:20;100714.75;;;11.72;64.13
71126;BME280;58785;55.566;38.058;2023-04-05T07:17:45;100697.75;;;11.73;63.84
71126;BME280;58785;55.566;38.058;2023-04-05T07:20:11;100713.22;;;11.89;63.29
71126;BME280;58785;55.566;38.058;2023-04-05T07:22:37;100704.06;;;11.92;63.35
71126;BME280;58785;55.566;38.058;2023-04-05T07:25:02;100696.91;;;11.92;63.17
71126;BME280;58785;55.566;38.058;2023-04-05T07:27:29;100700.00;;;12.07;63.20
71126;BME280;58785;55.566;38.058;2023-04-05T07:29:56;100702.31;;;12.49;62.88
71126;BME280;58785;55.566;38.058;2023-04-05T07:32:21;100697.59;;;12.70;62.10
71126;BME280;58785;55.566;38.058;2023-04-05T07:34:47;100706.97;;;12.84;61.85
71126;BME280;58785;55.566;38.058;2023-04-05T07:37:13;100701.59;;;12.93;61.41
71126;BME280;58785;55.566;38.058;2023-04-05T07:39:39;100706.69;;;12.87;61.56
71126;BME280;58785;55.566;38.058;2023-04-05T07:42:04;100707.66;;;12.86;61.20
71126;BME280;58785;55.566;38.058;2023-04-05T07:44:30;100702.00;;;12.89;61.48
71126;BME280;58785;55.566;38.058;2023-04-05T07:46:56;100708.56;;;13.04;61.05
71126;BME280;58785;55.566;38.058;2023-04-05T07:49:25;100708.06;;;13.18;60.58
71126;BME280;58785;55.566;38.058;2023-04-05T07:51:58;100695.75;;;13.35;60.35
71126;BME280;58785;55.566;38.058;2023-04-05T07:54:23;100708.28;;;13.52;60.21
71126;BME280;58785;55.566;38.058;2023-04-05T07:56:50;100702.59;;;13.65;59.54
71126;BME280;58785;55.566;38.058;2023-04-05T07:59:16;100712.84;;;13.88;59.15
71126;BME280;58785;55.566;38.058;2023-04-05T08:01:41;100709.69;;;13.74;59.11
71126;BME280;58785;55.566;38.058;2023-04-05T08:04:07;100715.13;;;13.65;58.96
71126;BME280;58785;55.566;38.058;2023-04-05T08:06:33;100703.56;;;13.64;58.76
71126;BME280;58785;55.566;38.058;2023-04-05T08:08:58;100696.50;;;13.81;58.85
71126;BME280;58785;55.566;38.058;2023-04-05T08:11:24;100696.19;;;14.02;58.85
71126;BME280;58785;55.566;38.058;2023-04-05T08:13:50;100706.03;;;14.19;58.35
71126;BME280;58785;55.566;38.058;2023-04-05T08:16:18;100700.59;;;14.29;58.38
71126;BME280;58785;55.566;38.058;2023-04-05T08:18:44;100708.63;;;14.47;57.72
71126;BME280;58785;55.566;38.058;2023-04-05T08:21:09;100702.25;;;14.48;57.91
71126;BME280;58785;55.566;38.058;2023-04-05T08:23:35;100700.56;;;14.47;57.22
71126;BME280;58785;55.566;38.058;2023-04-05T08:26:01;100701.09;;;14.50;57.51
71126;BME280;58785;55.566;38.058;2023-04-05T08:28:26;100709.19;;;14.58;57.39
71126;BME280;58785;55.566;38.058;2023-04-05T08:30:54;100705.63;;;14.50;56.50
71126;BME280;58785;55.566;38.058;2023-04-05T08:33:22;100701.41;;;14.47;57.04
71126;BME280;58785;55.566;38.058;2023-04-05T08:35:48;100699.13;;;14.34;56.75
71126;BME280;58785;55.566;38.058;2023-04-05T08:38:13;100696.44;;;14.34;56.36
71126;BME280;58785;55.566;38.058;2023-04-05T08:40:41;100697.22;;;14.45;56.50
71126;BME280;58785;55.566;38.058;2023-04-05T08:43:11;100710.38;;;14.56;56.02
71126;BME280;58785;55.566;38.058;2023-04-05T08:45:47;100706.84;;;14.55;55.38
71126;BME280;58785;55.566;38.058;2023-04-05T08:48:14;100698.72;;;14.47;55.72
71126;BME280;58785;55.566;38.058;2023-04-05T08:50:39;100705.63;;;14.50;55.82
71126;BME280;58785;55.566;38.058;2023-04-05T08:53:06;100698.63;;;14.57;55.70
71126;BME280;58785;55.566;38.058;2023-04-05T08:55:32;100692.59;;;14.55;55.04
71126;BME280;58785;55.566;38.058;2023-04-05T08:57:59;100694.94;;;14.58;55.69
71126;BME280;58785;55.566;38.058;2023-04-05T09:00:26;100692.19;;;14.76;55.39
71126;BME280;58785;55.566;38.058;2023-04-05T09:02:55;100689.72;;;14.90;55.08
71126;BME280;58785;55.566;38.058;2023-04-05T09:05:23;100697.66;;;15.00;54.89
71126;BME280;58785;55.566;38.058;2023-04-05T09:07:50;100692.81;;;15.04;54.68
71126;BME280;58785;55.566;38.058;2023-04-05T09:10:18;100708.94;;;15.04;54.43
71126;BME280;58785;55.566;38.058;2023-04-05T09:12:44;100696.97;;;14.98;54.09
71126;BME280;58785;55.566;38.058;2023-04-05T09:15:10;100699.78;;;14.88;54.17
71126;BME280;58785;55.566;38.058;2023-04-05T09:17:38;100686.53;;;14.87;53.91
71126;BME280;58785;55.566;38.058;2023-04-05T09:20:04;100695.78;;;14.92;53.88
71126;BME280;58785;55.566;38.058;2023-04-05T09:22:30;100692.28;;;15.00;53.75
71126;BME280;58785;55.566;38.058;2023-04-05T09:24:56;100687.44;;;15.04;53.85
71126;BME280;58785;55.566;38.058;2023-04-05T09:27:21;100701.06;;;15.10;53.49
71126;BME280;58785;55.566;38.058;2023-04-05T09:29:48;100692.19;;;15.18;53.83
71126;BME280;58785;55.566;38.058;2023-04-05T09:32:15;100685.84;;;15.27;53.31
71126;BME280;58785;55.566;38.058;2023-04-05T09:34:43;100685.03;;;15.35;53.45
71126;BME280;58785;55.566;38.058;2023-04-05T09:37:13;100690.41;;;15.35;53.79
71126;BME280;58785;55.566;38.058;2023-04-05T09:39:39;100690.84;;;15.22;53.46
71126;BME280;58785;55.566;38.058;2023-04-05T09:44:48;100676.03;;;15.10;52.75
71126;BME280;58785;55.566;38.058;2023-04-05T09:47:20;100673.56;;;15.16;53.24
71126;BME280;58785;55.566;38.058;2023-04-05T09:49:46;100674.91;;;15.20;53.52
71126;BME280;58785;55.566;38.058;2023-04-05T09:52:25;100673.19;;;15.11;53.06
71126;BME280;58785;55.566;38.058;2023-04-05T09:54:53;100680.28;;;15.29;53.04
71126;BME280;58785;55.566;38.058;2023-04-05T09:57:23;100686.38;;;15.39;53.35
71126;BME280;58785;55.566;38.058;2023-04-05T09:59:54;100683.00;;;15.37;52.72
71126;BME280;58785;55.566;38.058;2023-04-05T10:02:23;100684.69;;;15.38;52.60
71126;BME280;58785;55.566;38.058;2023-04-05T10:04:49;100693.41;;;15.32;52.75
71126;BME280;58785;55.566;38.058;2023-04-05T10:07:16;100680.47;;;15.27;52.71
71126;BME280;58785;55.566;38.058;2023-04-05T10:09:44;100679.81;;;15.33;52.48
71126;BME280;58785;55.566;38.058;2023-04-05T10:12:14;100680.81;;;15.40;52.75
71126;BME280;58785;55.566;38.058;2023-04-05T10:14:42;100677.50;;;15.55;52.46
71126;BME280;58785;55.566;38.058;2023-04-05T10:17:11;100675.72;;;15.63;52.35
71126;BME280;58785;55.566;38.058;2023-04-05T10:22:44;100670.59;;;15.52;51.68
71126;BME280;58785;55.566;38.058;2023-04-05T10:25:24;100675.13;;;15.43;52.04
71126;BME280;58785;55.566;38.058;2023-04-05T10:28:02;100680.50;;;15.43;51.41
71126;BME280;58785;55.566;38.058;2023-04-05T10:30:40;100675.81;;;15.45;52.18
71126;BME280;58785;55.566;38.058;2023-04-05T10:33:30;100676.31;;;15.57;51.84
71126;BME280;58785;55.566;38.058;2023-04-05T10:39:04;100670.31;;;15.71;51.34
71126;BME280;58785;55.566;38.058;2023-04-05T10:41:37;100671.69;;;15.75;51.49
71126;BME280;58785;55.566;38.058;2023-04-05T10:44:08;100677.38;;;15.64;51.82
71126;BME280;58785;55.566;38.058;2023-04-05T10:46:35;100679.34;;;15.54;51.41
71126;BME280;58785;55.566;38.058;2023-04-05T10:51:36;100674.09;;;15.36;51.88
71126;BME280;58785;55.566;38.058;2023-04-05T10:54:03;100670.88;;;15.33;52.45
71126;BME280;58785;55.566;38.058;2023-04-05T10:56:30;100669.56;;;15.29;52.67
71126;BME280;58785;55.566;38.058;2023-04-05T10:58:57;100653.59;;;15.27;52.35
71126;BME280;58785;55.566;38.058;2023-04-05T11:01:24;100669.75;;;15.35;52.76
71126;BME280;58785;55.566;38.058;2023-04-05T11:03:51;100661.00;;;15.33;52.33
71126;BME280;58785;55.566;38.058;2023-04-05T11:06:18;100671.09;;;15.39;52.61
71126;BME280;58785;55.566;38.058;2023-04-05T11:08:46;100663.03;;;15.47;52.13
71126;BME280;58785;55.566;38.058;2023-04-05T11:11:16;100662.69;;;15.50;51.89
71126;BME280;58785;55.566;38.058;2023-04-05T11:13:55;100662.69;;;15.50;51.92
71126;BME280;58785;55.566;38.058;2023-04-05T11:16:22;100659.31;;;15.40;51.98
71126;BME280;58785;55.566;38.058;2023-04-05T11:18:51;100654.47;;;15.36;52.56
71126;BME280;58785;55.566;38.058;2023-04-05T11:21:22;100654.63;;;15.34;52.43
71126;BME280;58785;55.566;38.058;2023-04-05T11:29:09;100652.59;;;15.36;51.92
71126;BME280;58785;55.566;38.058;2023-04-05T11:31:35;100658.47;;;15.40;51.95
71126;BME280;58785;55.566;38.058;2023-04-05T11:34:23;100662.53;;;15.36;52.14
71126;BME280;58785;55.566;38.058;2023-04-05T11:36:49;100659.00;;;15.35;52.04
71126;BME280;58785;55.566;38.058;2023-04-05T11:42:03;100656.63;;;15.40;51.97
71126;BME280;58785;55.566;38.058;2023-04-05T11:44:51;100657.50;;;15.49;52.39
71126;BME280;58785;55.566;38.058;2023-04-05T11:47:18;100648.94;;;15.45;51.92
71126;BME280;58785;55.566;38.058;2023-04-05T11:49:48;100654.13;;;15.47;51.75
71126;BME280;58785;55.566;38.058;2023-04-05T11:52:17;100649.94;;;15.52;52.10
71126;BME280;58785;55.566;38.058;2023-04-05T11:54:43;100646.44;;;15.60;51.77
71126;BME280;58785;55.566;38.058;2023-04-05T11:57:17;100644.72;;;15.59;51.50
71126;BME280;58785;55.566;38.058;2023-04-05T11:59:43;100652.66;;;15.61;51.56
71126;BME280;58785;55.566;38.058;2023-04-05T12:02:09;100652.31;;;15.56;51.52
71126;BME280;58785;55.566;38.058;2023-04-05T12:04:35;100641.03;;;15.52;51.44
71126;BME280;58785;55.566;38.058;2023-04-05T12:09:54;100658.00;;;15.44;51.76
71126;BME280;58785;55.566;38.058;2023-04-05T12:12:20;100645.56;;;15.43;52.38
71126;BME280;58785;55.566;38.058;2023-04-05T12:14:46;100640.69;;;15.47;52.51
71126;BME280;58785;55.566;38.058;2023-04-05T12:17:11;100648.41;;;15.50;52.07
71126;BME280;58785;55.566;38.058;2023-04-05T12:19:37;100645.91;;;15.48;51.94
71126;BME280;58785;55.566;38.058;2023-04-05T12:22:02;100644.91;;;15.49;51.67
71126;BME280;58785;55.566;38.058;2023-04-05T12:24:28;100648.06;;;15.53;52.09
71126;BME280;58785;55.566;38.058;2023-04-05T12:26:54;100644.22;;;15.47;51.73
71126;BME280;58785;55.566;38.058;2023-04-05T12:29:20;100648.09;;;15.45;51.95
71126;BME280;58785;55.566;38.058;2023-04-05T12:31:45;100651.44;;;15.39;51.65
71126;BME280;58785;55.566;38.058;2023-04-05T12:34:22;100641.88;;;15.36;51.84
71126;BME280;58785;55.566;38.058;2023-04-05T12:36:52;100642.34;;;15.40;51.98
71126;BME280;58785;55.566;38.058;2023-04-05T12:39:20;100644.72;;;15.43;51.90
71126;BME280;58785;55.566;38.058;2023-04-05T12:41:58;100643.38;;;15.47;51.00
71126;BME280;58785;55.566;38.058;2023-04-05T12:44:28;100647.56;;;15.41;51.64
71126;BME280;58785;55.566;38.058;2023-04-05T12:46:59;100645.56;;;15.35;51.67
71126;BME280;58785;55.566;38.058;2023-04-05T12:49:26;100648.38;;;15.26;51.96
71126;BME280;58785;55.566;38.058;2023-04-05T12:51:52;100635.09;;;15.16;52.51
71126;BME280;58785;55.566;38.058;2023-04-05T12:54:21;100636.94;;;15.15;51.91
71126;BME280;58785;55.566;38.058;2023-04-05T12:56:51;100646.19;;;15.21;52.20
71126;BME280;58785;55.566;38.058;2023-04-05T12:59:21;100631.56;;;15.15;51.95
71126;BME280;58785;55.566;38.058;2023-04-05T13:01:47;100650.53;;;15.22;52.12
71126;BME280;58785;55.566;38.058;2023-04-05T13:04:13;100639.50;;;15.25;52.43
71126;BME280;58785;55.566;38.058;2023-04-05T13:06:38;100643.84;;;15.18;51.66
71126;BME280;58785;55.566;38.058;2023-04-05T13:09:04;100644.00;;;15.16;52.35
71126;BME280;58785;55.566;38.058;2023-04-05T13:11:30;100646.31;;;15.11;52.08
71126;BME280;58785;55.566;38.058;2023-04-05T13:13:56;100642.28;;;15.07;52.45
71126;BME280;58785;55.566;38.058;2023-04-05T13:16:22;100647.16;;;15.04;52.25
71126;BME280;58785;55.566;38.058;2023-04-05T13:18:47;100651.31;;;14.98;52.51
71126;BME280;58785;55.566;38.058;2023-04-05T13:21:13;100644.63;;;15.02;51.94